Home > Products > Valid Products > TAF

000
FTUS43 KGID 310239 AAA
TAFGRI
TAF AMD
KGRI 310239Z 3103/3124 01014G19KT P6SM BKN022
     FM311000 02011KT P6SM SCT028
     FM311700 08008KT P6SM FEW250
     FM312200 13008KT P6SM FEW250=



000
FTUS43 KGID 302340
TAFGRI
TAF
KGRI 302340Z 3100/3124 36016G21KT P6SM SKC
     FM310300 01014G19KT P6SM BKN018
     FM311000 02011KT P6SM SCT028
     FM311700 08008KT P6SM FEW250
     FM312200 13008KT P6SM FEW250=



000
FTUS43 KGID 301720
TAFGRI
TAF
KGRI 301720Z 3018/3118 33016G26KT P6SM SKC
     FM302300 36016KT P6SM SCT018
     FM310200 01013KT P6SM BKN018
     FM311000 02011KT P6SM SCT028
     FM311500 05008KT P6SM FEW250=



000
FTUS43 KGID 301422 AAA
TAFGRI
TAF AMD
KGRI 301422Z 3014/3112 30012KT P6SM SKC
     FM301630 33016G24KT P6SM SKC
     FM310000 36012KT P6SM SCT015
     FM310300 36012KT P6SM BKN015=



000
FTUS43 KGID 301120
TAFGRI
TAF
KGRI 301120Z 3012/3112 30010KT P6SM SKC
     FM301300 32014G24KT P6SM SKC
     FM310000 34014KT P6SM SCT250=



000
FTUS43 KGID 300520
TAFGRI
TAF
KGRI 300520Z 3006/3106 VRB06KT P6SM SCT120
     FM301300 32014G24KT P6SM SCT250
     FM310000 34014KT P6SM SCT250=



000
FTUS43 KGID 300045 CCA
TAFGRI
TAF COR
KGRI 300045Z 3000/3024 VRB06KT P6SM SKC
     FM301300 32017G24KT P6SM SKC=



000
FTUS43 KGID 291720
TAFGRI
TAF
KGRI 291720Z 2918/3018 18010KT P6SM SKC
     FM300000 VRB06KT P6SM SKC
     FM301300 32017G24KT P6SM SKC=



000
FTUS43 KGID 291616 AAA
TAFGRI
TAF AMD
KGRI 291616Z 2916/3012 16011KT P6SM SKC
     FM300500 26008KT P6SM FEW050 FEW120=



000
FTUS43 KGID 291120
TAFGRI
TAF
KGRI 291120Z 2912/3012 VRB06KT P6SM SKC
     FM291600 18010KT P6SM SKC
     FM300500 26008KT P6SM FEW050 FEW120=



000
FTUS43 KGID 290529
TAFGRI
TAF
KGRI 290529Z 2906/3006 VRB04KT P6SM SKC
     FM291400 18010KT P6SM SKC
     FM300300 20008KT P6SM FEW120=



000
FTUS43 KGID 282331
TAFGRI
TAF
KGRI 282331Z 2900/2924 34004KT P6SM SKC
     FM291100 VRB02KT P6SM SKC
     FM291600 15009KT P6SM SKC=



000
FTUS43 KGID 281815 AAA
TAFGRI
TAF AMD
KGRI 281815Z 2818/2918 31012G17KT P6SM SKC
     FM290000 VRB06KT P6SM SKC=



000
FTUS43 KGID 281720
TAFGRI
TAF
KGRI 281720Z 2818/2918 31011KT P6SM SKC
     FM290000 VRB06KT P6SM SKC=



000
FTUS43 KGID 281120
TAFGRI
TAF
KGRI 281120Z 2812/2912 28010KT P6SM FEW100
     FM281600 32014G21KT P6SM SCT100
     FM282200 32010KT P6SM SKC
     FM290300 29005KT P6SM SKC=



000
FTUS43 KGID 280520
TAFGRI
TAF
KGRI 280520Z 2806/2906 28008KT P6SM FEW100
     FM281500 31016G23KT P6SM FEW100
     FM290000 30007KT P6SM SKC=



    US Dept of Commerce
    National Oceanic and Atmospheric Administration
    National Weather Service
    1325 East West Highway
    Silver Spring, MD 20910
    Page Author: NWS Internet Services Team
Disclaimer
Information Quality
Credits
Glossary
Privacy Policy
Freedom of Information Act (FOIA)
About Us
Career Opportunities